Decoded Metar for TGPY (POINT SALINES in GRENADA) (IATA:GND) | Meteo·Mobile Aviation Weather
aviador You're here:

TGPY Decoded Metar

POINT SALINES in GRENADA
Report Time2020-02-18 22:00:00
UTC Time2020-02-18 22:44:45
Flight Rules vfr VFR
Wind080° at 10 kt
W.Decomp.*RWY 10: 9.9 kt HW 1 kt LCW
Visibility9999 m
Phenomena:N/A
Clouds:Few 017 Hf
Expected CloudBase > 1,600 ft AGL from Temp-Dew spread
CeilingNone
Temp27°C (ISA +12)
Dew Point23°C (79% RH)
Heat Index29.6°C
QNH1013 hPa
Density Alt1,781 ft
Elevation23 ft
Report Wrong Elevation
Raw Report
METAR TGPY 182200Z 08010KT 9999 FEW017 27/23 Q1013 NOSIG=

Extra information for TGPY:More info

Metar Taf Metar & Taf Last 4 Metars F.Rules Stats Wind Profile Meteogram Temp Stats Airport Information Weather charts Add Link Nearby VenuesMetar ALERT Operation Metar Decoded Social comments